Time;durP1;ratioP1;P1;durP2;ratioP2;P2;SDS_P1;SDS_P2;PMS_P1;PMS_P2;Temp;Humidity;BMP_temperature;BMP_pressure;BME280_temperature;BME280_humidity;BME280_pressure;Samples;Min_cycle;Max_cycle;Signal;HPM_P1;HPM_P2
2022/05/10 00:00:53;;;;;;;11.52;5.50;;;14.10;99.90;;;;;;5067256;28;20048;-74
2022/05/10 00:03:21;;;;;;;15.40;5.18;;;14.00;99.90;;;;;;5067610;28;20040;-74
2022/05/10 00:05:47;;;;;;;11.95;5.28;;;14.00;99.90;;;;;;5067278;28;20044;-74
2022/05/10 00:08:16;;;;;;;11.55;5.60;;;14.10;99.90;;;;;;5067528;28;20036;-74
2022/05/10 00:10:42;;;;;;;14.90;5.63;;;14.10;99.90;;;;;;5067262;28;20043;-74
2022/05/10 00:13:08;;;;;;;12.32;5.43;;;14.00;99.90;;;;;;5067744;28;20124;-75
2022/05/10 00:15:35;;;;;;;13.85;6.13;;;14.00;99.90;;;;;;5067552;28;20110;-75
2022/05/10 00:18:01;;;;;;;;;;;14.00;99.90;;;;;;5068163;28;20067;-74
2022/05/10 00:20:27;;;;;;;11.77;5.38;;;13.90;99.90;;;;;;5084312;28;19920;-74
2022/05/10 00:22:53;;;;;;;14.82;6.07;;;13.90;99.90;;;;;;5067213;28;20496;-76
2022/05/10 00:25:28;;;;;;;13.10;6.20;;;13.80;99.90;;;;;;5067629;28;20045;-74
2022/05/10 00:27:55;;;;;;;14.55;6.60;;;13.80;99.90;;;;;;5050703;28;20040;-75
2022/05/10 00:30:21;;;;;;;11.20;6.43;;;13.80;99.90;;;;;;5067429;28;20048;-75
2022/05/10 00:32:47;;;;;;;10.48;5.88;;;13.80;99.90;;;;;;5050310;28;20045;-75
2022/05/10 00:35:15;;;;;;;;;;;13.80;99.90;;;;;;5067950;28;20043;-74
2022/05/10 00:37:46;;;;;;;11.85;6.22;;;13.80;99.90;;;;;;5068697;28;20368;-74
2022/05/10 00:40:13;;;;;;;10.68;6.50;;;13.80;99.90;;;;;;5067032;28;20041;-73
2022/05/10 00:43:18;;;;;;;12.20;6.65;;;13.80;99.90;;;;;;5066882;28;20104;-74
2022/05/10 00:46:08;;;;;;;12.02;6.35;;;13.80;99.90;;;;;;5050206;28;20036;-74
2022/05/10 00:48:45;;;;;;;13.73;6.38;;;13.80;99.90;;;;;;5067410;28;20048;-75
2022/05/10 00:51:51;;;;;;;11.88;6.10;;;13.90;99.90;;;;;;5067305;28;20074;-74
2022/05/10 00:54:32;;;;;;;12.40;6.13;;;13.80;99.90;;;;;;5043501;28;20048;-74
2022/05/10 00:57:44;;;;;;;13.32;5.90;;;13.80;99.90;;;;;;5068836;28;20519;-75
2022/05/10 01:00:23;;;;;;;12.15;6.22;;;13.90;99.90;;;;;;5013411;28;20094;-73
2022/05/10 01:03:06;;;;;;;11.38;6.13;;;14.00;99.90;;;;;;5013180;28;20081;-74
2022/05/10 01:05:40;;;;;;;10.18;6.07;;;13.90;99.90;;;;;;5034335;28;20377;-74
2022/05/10 01:08:34;;;;;;;14.93;5.97;;;14.00;99.90;;;;;;5071003;28;20032;-74
2022/05/10 01:11:13;;;;;;;12.70;5.78;;;13.90;99.90;;;;;;5070392;28;20063;-74
2022/05/10 01:14:12;;;;;;;13.32;6.20;;;14.00;99.90;;;;;;5070757;28;20051;-74
2022/05/10 01:16:38;;;;;;;11.35;5.22;;;14.10;99.90;;;;;;5068322;28;20177;-75
2022/05/10 01:19:04;;;;;;;13.82;5.65;;;14.10;99.90;;;;;;5053918;28;20036;-75
2022/05/10 01:21:54;;;;;;;10.63;5.30;;;14.10;99.90;;;;;;5071681;28;20049;-75
2022/05/10 01:24:49;;;;;;;14.55;5.47;;;14.10;99.90;;;;;;5070606;28;20048;-74
2022/05/10 01:27:46;;;;;;;10.18;4.97;;;14.10;99.90;;;;;;5070651;28;20036;-74
2022/05/10 01:30:23;;;;;;;13.90;5.15;;;14.00;99.90;;;;;;5070707;28;20072;-74
2022/05/10 01:35:43;;;;;;;12.18;4.90;;;14.00;99.90;;;;;;5067972;28;20049;-75
2022/05/10 01:38:30;;;;;;;11.07;5.07;;;14.00;99.90;;;;;;5071860;28;20071;-75
2022/05/10 01:41:01;;;;;;;;;;;14.00;99.90;;;;;;5070324;28;20064;-75
2022/05/10 01:43:37;;;;;;;10.10;4.78;;;14.10;99.90;;;;;;5070628;28;20133;-74
2022/05/10 01:46:15;;;;;;;11.63;5.57;;;14.10;99.90;;;;;;5069978;28;20041;-75
2022/05/10 01:48:44;;;;;;;11.95;4.60;;;14.10;99.90;;;;;;5070286;28;20643;-75
2022/05/10 01:51:18;;;;;;;8.70;4.50;;;14.10;99.90;;;;;;5070140;28;20041;-74
2022/05/10 01:53:45;;;;;;;8.18;4.85;;;14.10;99.90;;;;;;5070548;28;20361;-74
2022/05/10 01:56:19;;;;;;;14.70;5.10;;;14.10;99.90;;;;;;5053559;28;20045;-74
2022/05/10 01:58:46;;;;;;;10.25;5.10;;;14.10;99.90;;;;;;5069880;28;20085;-75
2022/05/10 02:01:29;;;;;;;9.20;4.50;;;14.10;99.90;;;;;;5069934;28;20157;-75
2022/05/10 02:04:06;;;;;;;10.70;4.20;;;14.10;99.90;;;;;;5069836;28;20039;-75
2022/05/10 02:06:49;;;;;;;9.10;5.07;;;14.10;99.90;;;;;;5069889;28;20028;-75
2022/05/10 02:09:24;;;;;;;9.75;5.38;;;14.10;99.90;;;;;;5069347;28;20036;-75
2022/05/10 02:12:37;;;;;;;10.75;4.95;;;14.10;99.90;;;;;;5069664;28;20077;-75
2022/05/10 02:15:11;;;;;;;9.65;5.10;;;14.00;99.90;;;;;;5038789;28;20048;-74
2022/05/10 02:18:01;;;;;;;11.02;5.53;;;14.00;99.90;;;;;;5069950;28;20473;-74
2022/05/10 02:20:33;;;;;;;13.48;4.85;;;13.90;99.90;;;;;;5069373;28;20044;-74
2022/05/10 02:23:09;;;;;;;13.65;5.45;;;13.80;99.90;;;;;;5069210;28;20715;-74
2022/05/10 02:25:43;;;;;;;15.10;5.80;;;13.80;99.90;;;;;;5069470;28;20045;-75
2022/05/10 02:28:33;;;;;;;10.13;5.57;;;13.70;99.90;;;;;;5069115;28;20119;-74
2022/05/10 02:31:03;;;;;;;11.75;5.75;;;13.70;99.90;;;;;;5070186;28;20094;-74
2022/05/10 02:33:30;;;;;;;9.85;5.45;;;13.60;99.90;;;;;;5069636;28;20040;-74
2022/05/10 02:35:59;;;;;;;10.40;5.75;;;13.60;99.90;;;;;;5052339;28;20089;-74
2022/05/10 02:38:28;;;;;;;12.23;5.45;;;13.50;99.90;;;;;;5069114;28;20040;-74
2022/05/10 02:40:57;;;;;;;12.02;6.55;;;13.50;99.90;;;;;;5068522;28;20067;-75
2022/05/10 02:43:29;;;;;;;9.95;5.60;;;13.50;99.90;;;;;;5070479;28;20074;-75
2022/05/10 02:45:55;;;;;;;11.13;5.47;;;13.50;99.90;;;;;;5068823;28;20111;-75
2022/05/10 02:48:29;;;;;;;11.93;5.85;;;13.50;99.90;;;;;;5069019;28;20044;-74
2022/05/10 02:50:55;;;;;;;9.38;5.30;;;13.40;99.90;;;;;;5069063;28;20048;-75
2022/05/10 02:53:21;;;;;;;11.57;5.80;;;13.40;99.90;;;;;;5068856;28;20040;-75
2022/05/10 02:55:52;;;;;;;12.55;5.40;;;13.40;99.90;;;;;;5069428;28;20107;-75
2022/05/10 02:58:33;;;;;;;11.82;5.60;;;13.50;99.90;;;;;;5068854;28;20076;-75
2022/05/10 03:01:20;;;;;;;13.75;5.38;;;13.50;99.90;;;;;;5068716;28;20078;-74
2022/05/10 03:03:46;;;;;;;10.02;5.53;;;13.50;99.90;;;;;;5069200;28;20115;-75
2022/05/10 03:06:20;;;;;;;;;;;13.50;99.90;;;;;;5052328;28;20389;-74
2022/05/10 03:08:47;;;;;;;13.25;6.13;;;13.50;99.90;;;;;;5068999;28;20284;-74
2022/05/10 03:11:14;;;;;;;11.07;5.80;;;13.50;99.90;;;;;;5068555;28;20638;-74
2022/05/10 03:13:40;;;;;;;9.63;6.43;;;13.50;99.90;;;;;;5068273;28;20049;-75
2022/05/10 03:16:07;;;;;;;12.68;5.93;;;13.50;99.90;;;;;;5068246;28;20052;-74
2022/05/10 03:18:33;;;;;;;13.57;6.10;;;13.50;99.90;;;;;;5068463;28;20049;-74
2022/05/10 03:20:59;;;;;;;11.88;5.90;;;13.50;99.90;;;;;;5066937;28;20040;-74
2022/05/10 03:23:27;;;;;;;13.63;5.57;;;13.50;99.90;;;;;;5068240;28;20056;-75
2022/05/10 03:25:56;;;;;;;9.48;5.72;;;13.60;99.90;;;;;;5068773;28;20082;-75
2022/05/10 03:28:23;;;;;;;10.60;5.95;;;13.60;99.90;;;;;;5068265;28;20044;-75
2022/05/10 03:30:49;;;;;;;8.85;5.70;;;13.60;99.90;;;;;;5068286;28;20044;-75
2022/05/10 03:33:15;;;;;;;;;;;13.60;99.90;;;;;;5069542;28;20488;-75
2022/05/10 03:35:41;;;;;;;12.90;6.10;;;13.70;99.90;;;;;;5068112;28;19970;-75
2022/05/10 03:38:07;;;;;;;10.10;6.20;;;13.70;99.90;;;;;;5051339;28;20032;-75
2022/05/10 03:40:33;;;;;;;13.07;6.43;;;13.70;99.90;;;;;;5068113;28;20032;-74
2022/05/10 03:42:59;;;;;;;13.90;6.72;;;13.70;99.90;;;;;;5051357;28;20511;-75
2022/05/10 03:45:25;;;;;;;11.77;6.22;;;13.70;99.90;;;;;;5035052;28;20128;-74
2022/05/10 03:47:52;;;;;;;12.18;6.55;;;13.70;99.90;;;;;;5068032;28;20123;-75
2022/05/10 03:50:19;;;;;;;;;;;13.70;99.90;;;;;;5067998;28;20044;-75
2022/05/10 03:52:45;;;;;;;12.93;6.90;;;13.70;99.90;;;;;;5067896;28;19967;-74
2022/05/10 03:55:13;;;;;;;9.68;5.85;;;13.70;99.90;;;;;;5067791;28;20531;-74
2022/05/10 03:57:39;;;;;;;13.80;6.65;;;13.70;99.90;;;;;;5067806;28;20040;-74
2022/05/10 04:00:10;;;;;;;13.75;6.85;;;13.70;99.90;;;;;;5067533;28;20040;-74
2022/05/10 04:02:36;;;;;;;13.18;7.50;;;13.70;99.90;;;;;;5067784;28;20072;-75
2022/05/10 04:05:03;;;;;;;11.88;6.57;;;13.70;99.90;;;;;;5067266;28;20476;-74
2022/05/10 04:07:28;;;;;;;12.13;7.13;;;13.70;99.90;;;;;;5067874;28;20100;-75
2022/05/10 04:09:54;;;;;;;13.00;7.43;;;13.70;99.90;;;;;;5067682;28;20048;-75
2022/05/10 04:12:20;;;;;;;13.67;7.23;;;13.70;99.90;;;;;;5067313;28;20295;-74
2022/05/10 04:14:45;;;;;;;13.43;7.50;;;13.70;99.90;;;;;;5067827;28;20294;-74
2022/05/10 04:17:11;;;;;;;14.00;7.00;;;13.70;99.90;;;;;;5067259;28;20058;-73
2022/05/10 04:19:37;;;;;;;14.33;7.03;;;13.70;99.90;;;;;;5067559;28;20059;-75
2022/05/10 04:22:03;;;;;;;9.73;6.90;;;13.70;99.90;;;;;;5067040;28;20056;-75
2022/05/10 04:24:29;;;;;;;15.88;7.53;;;13.70;99.90;;;;;;5034615;28;20042;-75
2022/05/10 04:26:54;;;;;;;12.93;7.00;;;13.70;99.90;;;;;;5067625;28;20040;-74
2022/05/10 04:29:20;;;;;;;18.70;7.67;;;13.70;99.90;;;;;;5066797;28;20079;-76
2022/05/10 04:31:46;;;;;;;13.57;6.90;;;13.70;99.90;;;;;;5067392;28;20274;-77
2022/05/10 04:34:12;;;;;;;12.10;7.03;;;13.70;99.90;;;;;;5067066;28;20446;-77
2022/05/10 04:36:37;;;;;;;10.70;7.50;;;13.80;99.90;;;;;;5067837;28;20039;-77
2022/05/10 04:39:03;;;;;;;14.65;7.35;;;13.70;99.90;;;;;;5050323;28;20123;-75
2022/05/10 04:41:33;;;;;;;17.38;7.40;;;13.70;99.90;;;;;;5050325;28;20097;-75
2022/05/10 04:44:06;;;;;;;13.98;7.20;;;13.80;99.90;;;;;;5067605;28;20837;-76
2022/05/10 04:46:35;;;;;;;13.43;7.60;;;13.80;99.90;;;;;;5067212;28;20028;-76
2022/05/10 04:49:01;;;;;;;14.32;7.63;;;13.80;99.90;;;;;;5067684;28;20549;-76
2022/05/10 04:51:28;;;;;;;;;;;13.80;99.90;;;;;;5067837;28;20420;-77
2022/05/10 04:53:54;;;;;;;13.57;8.05;;;13.90;99.90;;;;;;5034008;28;19923;-77
2022/05/10 04:56:20;;;;;;;;;;;13.90;99.90;;;;;;5048169;28;20036;-78
2022/05/10 04:58:46;;;;;;;15.70;7.85;;;14.00;99.90;;;;;;5068689;28;19969;-76
2022/05/10 05:01:14;;;;;;;14.75;7.68;;;14.00;99.90;;;;;;5067429;28;20098;-76
2022/05/10 05:03:48;;;;;;;14.45;7.68;;;14.10;99.90;;;;;;5067774;28;20037;-77
2022/05/10 05:06:14;;;;;;;13.68;7.50;;;14.10;99.90;;;;;;5067752;28;20032;-76
2022/05/10 05:08:40;;;;;;;14.23;8.02;;;14.10;99.90;;;;;;5051209;28;20044;-76
2022/05/10 05:11:05;;;;;;;13.35;7.85;;;14.20;99.90;;;;;;5067484;28;20476;-77
2022/05/10 05:13:31;;;;;;;12.98;7.65;;;14.20;99.90;;;;;;5067889;28;20040;-76
2022/05/10 05:15:57;;;;;;;12.05;7.72;;;14.30;99.90;;;;;;5067858;28;20073;-77
2022/05/10 05:18:23;;;;;;;18.10;8.60;;;14.30;99.90;;;;;;5067263;28;20051;-76
2022/05/10 05:20:49;;;;;;;16.63;7.75;;;14.30;99.90;;;;;;5067548;28;20511;-76
2022/05/10 05:23:17;;;;;;;16.38;8.48;;;14.40;99.90;;;;;;5067265;28;20056;-76
2022/05/10 05:25:43;;;;;;;17.85;8.10;;;14.40;99.90;;;;;;5050670;28;20036;-76
2022/05/10 05:28:10;;;;;;;16.27;7.97;;;14.50;99.90;;;;;;5050993;28;20040;-76
2022/05/10 05:30:36;;;;;;;15.45;8.15;;;14.50;99.90;;;;;;5067652;28;20391;-76
2022/05/10 05:33:02;;;;;;;;;;;14.60;99.90;;;;;;5067930;28;20051;-77
2022/05/10 05:35:28;;;;;;;16.02;7.65;;;14.60;99.90;;;;;;5067277;28;20352;-76
2022/05/10 05:37:54;;;;;;;20.92;8.35;;;14.60;99.90;;;;;;5050897;28;20041;-76
2022/05/10 05:40:21;;;;;;;15.88;8.40;;;14.70;99.90;;;;;;5067185;28;20048;-76
2022/05/10 05:42:48;;;;;;;12.63;7.72;;;14.70;99.90;;;;;;5067297;28;20041;-77
2022/05/10 05:45:16;;;;;;;16.67;8.50;;;14.80;99.90;;;;;;5070595;28;20064;-76
2022/05/10 05:47:42;;;;;;;15.40;8.38;;;14.80;99.90;;;;;;5054657;28;20036;-76
2022/05/10 05:50:09;;;;;;;12.50;7.75;;;14.80;99.90;;;;;;5071357;28;20044;-76
2022/05/10 05:52:35;;;;;;;13.52;8.48;;;14.90;99.90;;;;;;5070815;28;20037;-76
2022/05/10 05:55:01;;;;;;;12.07;8.30;;;15.00;99.90;;;;;;5072213;28;20361;-77
2022/05/10 05:57:27;;;;;;;13.35;8.40;;;15.00;99.90;;;;;;5053386;28;20127;-77
2022/05/10 05:59:54;;;;;;;13.73;8.60;;;15.10;99.90;;;;;;5072263;28;20086;-77
2022/05/10 06:02:22;;;;;;;14.55;8.05;;;15.00;99.90;;;;;;5070688;28;20127;-75
2022/05/10 06:04:48;;;;;;;15.90;9.20;;;15.20;99.90;;;;;;5070660;28;20040;-77
2022/05/10 06:07:14;;;;;;;12.23;8.82;;;15.20;99.90;;;;;;5070233;28;20041;-76
2022/05/10 06:09:41;;;;;;;15.30;8.77;;;15.20;99.90;;;;;;5070650;28;20405;-77
2022/05/10 06:12:10;;;;;;;14.38;8.23;;;15.30;99.90;;;;;;5070634;28;20040;-76
2022/05/10 06:14:37;;;;;;;16.67;8.60;;;15.50;99.90;;;;;;5070157;28;20517;-76
2022/05/10 06:17:04;;;;;;;14.68;8.10;;;15.60;99.90;;;;;;5053890;28;20070;-76
2022/05/10 06:19:30;;;;;;;12.85;8.07;;;15.70;99.90;;;;;;5069796;28;20058;-77
2022/05/10 06:21:56;;;;;;;13.43;8.15;;;15.90;99.90;;;;;;5070511;28;20127;-77
2022/05/10 06:24:26;;;;;;;12.07;7.72;;;16.10;99.90;;;;;;5069973;28;20036;-77
2022/05/10 06:26:52;;;;;;;11.23;7.35;;;16.40;99.90;;;;;;5070683;28;20496;-77
2022/05/10 06:29:18;;;;;;;11.48;7.47;;;16.70;99.90;;;;;;5071365;28;20083;-76
2022/05/10 06:31:47;;;;;;;12.27;7.60;;;16.90;99.90;;;;;;5070485;28;20032;-77
2022/05/10 06:34:14;;;;;;;11.85;6.68;;;17.20;99.90;;;;;;5053491;28;20044;-76
2022/05/10 06:36:41;;;;;;;13.95;7.15;;;17.40;99.90;;;;;;5070208;28;20047;-77
2022/05/10 06:39:08;;;;;;;8.20;6.30;;;17.60;99.90;;;;;;5069894;28;20944;-77
2022/05/10 06:41:34;;;;;;;11.70;6.70;;;17.90;99.90;;;;;;5069579;28;20037;-76
2022/05/10 06:44:01;;;;;;;10.88;6.18;;;18.30;99.90;;;;;;5069972;28;20032;-76
2022/05/10 06:46:31;;;;;;;14.77;6.22;;;18.70;99.90;;;;;;5069498;28;20109;-76
2022/05/10 06:48:56;;;;;;;9.32;6.15;;;19.00;99.90;;;;;;5070029;28;20135;-75
2022/05/10 06:51:23;;;;;;;10.30;6.07;;;19.30;99.90;;;;;;5069757;28;20194;-77
2022/05/10 06:53:49;;;;;;;7.20;5.68;;;19.40;99.90;;;;;;5069654;28;20087;-75
2022/05/10 06:56:16;;;;;;;11.52;6.35;;;19.50;99.90;;;;;;5069938;28;20048;-76
2022/05/10 06:58:42;;;;;;;10.30;6.18;;;19.60;99.90;;;;;;5070205;28;20076;-77
2022/05/10 07:01:11;;;;;;;8.77;5.45;;;19.50;99.90;;;;;;5071112;28;20041;-76
2022/05/10 07:03:39;;;;;;;9.48;5.45;;;19.50;99.90;;;;;;5069610;28;20044;-77
2022/05/10 07:06:08;;;;;;;11.60;5.68;;;19.50;99.90;;;;;;5069657;28;20170;-76
2022/05/10 07:08:34;;;;;;;9.70;5.35;;;19.40;99.90;;;;;;5052859;28;20040;-75
2022/05/10 07:11:00;;;;;;;;;;;19.70;99.90;;;;;;5070407;28;20518;-76
2022/05/10 07:13:29;;;;;;;8.93;4.75;;;19.60;99.90;;;;;;5052390;28;19916;-76
2022/05/10 07:15:55;;;;;;;9.35;4.90;;;19.60;99.90;;;;;;5069379;28;20047;-77
2022/05/10 07:18:21;;;;;;;9.95;4.47;;;19.60;99.90;;;;;;5069465;28;20404;-77
2022/05/10 07:20:48;;;;;;;10.90;5.32;;;19.70;99.90;;;;;;5069103;28;20045;-77
2022/05/10 07:23:18;;;;;;;8.65;5.35;;;19.80;99.90;;;;;;5069790;28;20159;-76
2022/05/10 07:25:44;;;;;;;10.07;4.72;;;19.80;99.90;;;;;;5053067;28;20078;-75
2022/05/10 07:28:10;;;;;;;11.30;5.22;;;19.90;99.90;;;;;;5069653;28;20052;-76
2022/05/10 07:30:35;;;;;;;10.77;4.93;;;20.20;99.90;;;;;;5068771;28;20048;-75
2022/05/10 07:33:03;;;;;;;7.55;4.60;;;20.30;99.90;;;;;;5069513;28;20259;-76
2022/05/10 07:38:15;;;;;;;11.27;4.55;;;20.80;99.90;;;;;;5069935;28;20041;-76
2022/05/10 07:40:42;;;;;;;8.77;4.22;;;21.00;99.90;;;;;;5068776;28;20373;-76
2022/05/10 07:43:10;;;;;;;7.90;4.35;;;21.10;99.90;;;;;;5052755;28;20097;-76
2022/05/10 07:45:36;;;;;;;9.25;3.75;;;21.30;99.90;;;;;;5068642;28;20086;-76
2022/05/10 07:48:03;;;;;;;7.60;3.92;;;21.40;99.90;;;;;;5069103;28;20085;-76
2022/05/10 07:50:28;;;;;;;9.52;4.20;;;21.50;99.90;;;;;;5068694;28;20151;-76
2022/05/10 07:52:54;;;;;;;9.65;3.90;;;21.60;99.90;;;;;;5069255;28;20450;-76
2022/05/10 07:55:20;;;;;;;11.82;3.80;;;21.60;99.90;;;;;;5068491;28;20131;-76
2022/05/10 07:57:45;;;;;;;7.10;3.45;;;21.70;99.90;;;;;;5068935;28;20089;-75
2022/05/10 08:00:13;;;;;;;7.47;3.45;;;21.60;99.90;;;;;;5068646;28;20467;-76
2022/05/10 08:02:44;;;;;;;8.13;3.53;;;21.70;99.90;;;;;;5068293;28;20519;-76
2022/05/10 08:05:11;;;;;;;7.57;3.33;;;21.70;99.90;;;;;;5069134;28;20506;-76
2022/05/10 08:07:36;;;;;;;11.82;3.35;;;21.80;99.90;;;;;;5067703;28;20508;-75
2022/05/10 08:10:04;;;;;;;9.65;3.35;;;22.00;99.90;;;;;;5068643;28;20040;-77
2022/05/10 08:12:30;;;;;;;8.45;3.47;;;22.00;99.90;;;;;;5068057;28;20044;-75
2022/05/10 08:14:56;;;;;;;7.40;3.72;;;22.20;99.90;;;;;;5068353;28;20041;-76
2022/05/10 08:17:22;;;;;;;6.05;3.30;;;22.40;99.90;;;;;;5051382;28;20044;-77
2022/05/10 08:19:50;;;;;;;6.05;2.95;;;22.50;99.90;;;;;;5068584;28;20036;-76
2022/05/10 08:22:16;;;;;;;7.43;3.33;;;22.50;99.90;;;;;;5068524;28;20511;-76
2022/05/10 08:24:42;;;;;;;;;;;22.30;99.90;;;;;;5068229;28;20201;-76
2022/05/10 08:27:08;;;;;;;12.68;3.50;;;22.20;99.90;;;;;;5052029;28;20059;-76
2022/05/10 08:29:33;;;;;;;5.95;3.20;;;22.20;99.90;;;;;;5067762;28;20039;-75
2022/05/10 08:31:59;;;;;;;5.57;3.25;;;22.10;99.90;;;;;;5069744;28;20036;-76
2022/05/10 08:34:27;;;;;;;6.65;2.70;;;22.00;99.90;;;;;;5068238;28;20123;-76
2022/05/10 08:36:53;;;;;;;7.25;3.28;;;21.80;99.90;;;;;;5068259;28;20106;-76
2022/05/10 08:39:19;;;;;;;8.68;3.08;;;21.80;99.90;;;;;;5068628;28;20036;-76
2022/05/10 08:41:52;;;;;;;7.60;3.20;;;21.80;99.90;;;;;;5067525;28;20033;-76
2022/05/10 08:44:28;;;;;;;7.13;3.33;;;21.80;99.90;;;;;;5068335;28;20040;-76
2022/05/10 08:46:58;;;;;;;6.53;3.15;;;22.00;99.90;;;;;;5068228;28;20071;-76
2022/05/10 08:49:53;;;;;;;5.90;2.85;;;22.20;99.90;;;;;;5067944;28;20079;-75
2022/05/10 08:52:24;;;;;;;10.43;3.35;;;22.20;99.90;;;;;;5050644;28;20068;-76
2022/05/10 08:54:50;;;;;;;8.75;3.05;;;22.20;99.90;;;;;;5051593;28;20048;-75
2022/05/10 08:57:39;;;;;;;6.03;2.80;;;22.10;99.90;;;;;;5035321;28;20415;-75
2022/05/10 09:00:23;;;;;;;5.65;2.45;;;22.30;99.90;;;;;;5067632;28;20507;-76
2022/05/10 09:02:53;;;;;;;7.63;2.67;;;22.30;99.90;;;;;;5067770;28;20032;-76
2022/05/10 09:05:37;;;;;;;6.88;2.35;;;22.30;99.90;;;;;;5068120;28;20080;-75
2022/05/10 09:08:41;;;;;;;6.40;2.75;;;22.40;99.60;;;;;;5067865;28;20040;-75
2022/05/10 09:11:13;;;;;;;4.82;2.90;;;22.60;99.50;;;;;;5068336;28;20044;-76
2022/05/10 09:13:42;;;;;;;5.18;2.47;;;22.40;99.40;;;;;;5067289;28;20048;-76
2022/05/10 09:16:13;;;;;;;5.30;2.50;;;22.50;99.90;;;;;;5051230;28;20039;-77
2022/05/10 09:18:52;;;;;;;4.75;2.60;;;22.60;99.10;;;;;;5069771;28;20040;-76
2022/05/10 09:21:28;;;;;;;5.13;2.80;;;22.70;99.60;;;;;;5071230;28;20106;-75
2022/05/10 09:24:25;;;;;;;6.80;2.72;;;22.60;99.90;;;;;;5071654;28;20047;-76
2022/05/10 09:26:53;;;;;;;7.78;2.75;;;22.50;99.50;;;;;;5071641;28;20369;-77
2022/05/10 09:29:28;;;;;;;4.25;2.67;;;22.60;99.90;;;;;;5071549;28;20077;-75
2022/05/10 09:34:47;;;;;;;;;;;23.00;99.40;;;;;;5071313;28;20044;-76
2022/05/10 09:37:39;;;;;;;8.48;2.90;;;23.30;99.10;;;;;;5071360;28;19920;-76
2022/05/10 09:40:17;;;;;;;7.45;3.38;;;23.50;98.50;;;;;;5055140;28;20119;-76
2022/05/10 09:42:49;;;;;;;7.15;3.03;;;23.50;98.60;;;;;;5053858;28;20037;-76
2022/05/10 09:45:20;;;;;;;6.40;3.33;;;23.60;98.00;;;;;;5071515;28;20045;-76
2022/05/10 09:48:17;;;;;;;6.03;2.90;;;23.60;97.60;;;;;;5070708;28;20119;-75
2022/05/10 09:50:46;;;;;;;6.03;3.23;;;23.60;97.90;;;;;;5070501;28;20040;-76
2022/05/10 09:53:12;;;;;;;9.27;3.53;;;23.60;98.40;;;;;;5070852;28;20283;-77
2022/05/10 09:55:51;;;;;;;9.50;3.30;;;23.80;98.40;;;;;;5070424;28;20036;-77
2022/05/10 09:58:31;;;;;;;7.07;3.75;;;24.10;98.70;;;;;;5069787;28;20048;-76
2022/05/10 10:01:00;;;;;;;8.77;3.58;;;24.20;97.40;;;;;;5070608;28;20048;-76
2022/05/10 10:03:32;;;;;;;6.35;3.60;;;24.10;97.50;;;;;;5070737;28;20044;-75
2022/05/10 10:06:19;;;;;;;6.93;3.38;;;23.80;97.70;;;;;;5071026;28;20120;-76
2022/05/10 10:08:58;;;;;;;7.73;3.53;;;23.60;98.20;;;;;;5070177;28;20043;-75
2022/05/10 10:11:25;;;;;;;7.05;3.85;;;23.60;98.50;;;;;;5071145;28;20495;-75
2022/05/10 10:14:11;;;;;;;8.27;3.50;;;23.40;99.10;;;;;;5070111;28;20123;-76
2022/05/10 10:16:55;;;;;;;6.90;3.67;;;23.50;98.30;;;;;;5069424;28;20083;-77
2022/05/10 10:19:20;;;;;;;8.07;3.83;;;23.50;98.10;;;;;;5053844;28;20040;-75
2022/05/10 10:22:06;;;;;;;7.95;3.72;;;23.50;98.20;;;;;;5069953;28;20566;-75
2022/05/10 10:24:53;;;;;;;9.77;4.15;;;23.60;98.50;;;;;;5053694;28;20141;-74
2022/05/10 10:27:31;;;;;;;;;;;23.50;98.60;;;;;;5071110;28;20511;-74
2022/05/10 10:30:04;;;;;;;10.48;4.28;;;23.80;98.00;;;;;;5069606;28;19923;-76
2022/05/10 10:32:52;;;;;;;7.50;5.10;;;24.10;98.00;;;;;;5070107;28;20064;-76
2022/05/10 10:35:56;;;;;;;9.00;4.53;;;24.30;96.80;;;;;;5069953;28;20118;-76
2022/05/10 10:38:56;;;;;;;7.60;4.10;;;24.40;97.60;;;;;;5031678;28;20048;-75
2022/05/10 10:41:33;;;;;;;9.90;4.40;;;24.30;97.70;;;;;;5053449;28;20075;-75
2022/05/10 10:44:19;;;;;;;10.60;4.78;;;24.20;98.40;;;;;;5070049;28;20068;-75
2022/05/10 10:47:11;;;;;;;12.15;5.00;;;24.30;97.80;;;;;;5069599;28;20481;-75
2022/05/10 10:49:47;;;;;;;7.28;5.10;;;24.60;97.50;;;;;;5058690;28;20106;-75
2022/05/10 10:52:14;;;;;;;;;;;24.50;97.70;;;;;;5070669;28;20496;-75
2022/05/10 10:54:41;;;;;;;8.82;5.05;;;24.60;97.20;;;;;;5069348;28;19927;-76
2022/05/10 10:57:40;;;;;;;8.32;4.55;;;24.20;97.60;;;;;;5069696;28;20045;-75
2022/05/10 11:00:16;;;;;;;10.07;5.78;;;23.90;98.00;;;;;;5069692;28;20048;-76
2022/05/10 11:03:04;;;;;;;8.85;5.07;;;24.00;98.00;;;;;;5069304;28;20029;-75
2022/05/10 11:05:38;;;;;;;9.65;4.50;;;23.80;98.10;;;;;;5069574;28;20131;-75
2022/05/10 11:08:34;;;;;;;12.55;5.32;;;23.80;98.00;;;;;;5069451;28;20035;-76
2022/05/10 11:11:28;;;;;;;7.82;4.18;;;23.50;98.80;;;;;;5069297;28;20190;-76
2022/05/10 11:14:02;;;;;;;6.65;3.03;;;23.20;98.50;;;;;;5068995;28;20040;-75
2022/05/10 11:16:41;;;;;;;6.32;2.95;;;23.00;98.00;;;;;;5069113;28;20043;-75
2022/05/10 11:19:34;;;;;;;6.88;2.95;;;22.90;98.30;;;;;;5069695;28;20567;-76
2022/05/10 11:22:11;;;;;;;5.22;2.47;;;22.80;97.10;;;;;;5052001;28;20071;-74
2022/05/10 11:25:03;;;;;;;4.05;2.30;;;22.90;97.90;;;;;;5069421;28;20094;-76
2022/05/10 11:27:47;;;;;;;5.45;2.47;;;23.00;98.00;;;;;;5069064;28;20051;-76
2022/05/10 11:30:33;;;;;;;4.55;2.10;;;23.10;97.60;;;;;;5069198;28;20407;-76
2022/05/10 11:33:20;;;;;;;6.68;2.40;;;23.30;97.50;;;;;;5068849;28;20055;-76
2022/05/10 11:36:16;;;;;;;7.55;2.47;;;23.60;97.60;;;;;;5068561;28;20661;-75
2022/05/10 11:39:17;;;;;;;5.25;2.58;;;23.80;97.00;;;;;;5051638;28;20064;-76
2022/05/10 11:42:02;;;;;;;5.95;3.13;;;23.90;96.90;;;;;;5067545;28;20047;-75
2022/05/10 11:44:50;;;;;;;7.18;3.42;;;23.90;96.80;;;;;;5068916;28;20032;-76
2022/05/10 11:47:43;;;;;;;10.80;3.80;;;23.90;96.50;;;;;;5068762;28;20104;-76
2022/05/10 11:50:09;;;;;;;5.80;3.28;;;23.80;96.20;;;;;;5068839;28;20045;-76
2022/05/10 11:52:47;;;;;;;9.32;3.75;;;23.70;97.20;;;;;;5068703;28;20105;-76
2022/05/10 11:55:31;;;;;;;10.27;4.00;;;23.50;97.50;;;;;;5068721;28;20102;-76
2022/05/10 11:58:00;;;;;;;7.53;3.85;;;23.40;97.20;;;;;;5068202;28;20119;-75
2022/05/10 12:00:32;;;;;;;7.35;4.15;;;23.50;97.90;;;;;;5068789;28;20546;-76
2022/05/10 12:02:59;;;;;;;7.78;4.45;;;23.70;98.10;;;;;;5068428;28;20123;-76
2022/05/10 12:05:27;;;;;;;8.38;4.57;;;23.70;98.50;;;;;;5052161;28;20074;-76
2022/05/10 12:07:56;;;;;;;9.65;4.70;;;23.90;97.90;;;;;;5068029;28;20039;-76
2022/05/10 12:10:22;;;;;;;6.63;4.10;;;24.20;97.50;;;;;;5068890;28;20484;-76
2022/05/10 12:12:47;;;;;;;10.10;5.07;;;24.40;98.10;;;;;;5067728;28;20090;-76
2022/05/10 12:21:28;;;;;;;14.90;5.85;;;24.30;97.30;;;;;;5068208;28;20506;-76
2022/05/10 12:24:19;;;;;;;10.20;5.95;;;24.20;97.40;;;;;;5067545;28;20045;-76
2022/05/10 12:26:51;;;;;;;11.57;5.95;;;24.10;97.80;;;;;;5051016;28;20033;-76
2022/05/10 12:29:32;;;;;;;9.00;5.60;;;24.20;98.20;;;;;;5068555;28;20484;-75
2022/05/10 12:31:58;;;;;;;8.98;5.20;;;24.20;97.80;;;;;;5051202;28;20123;-76
2022/05/10 12:34:44;;;;;;;10.52;4.72;;;24.10;98.20;;;;;;5068243;28;20119;-75
2022/05/10 12:37:28;;;;;;;11.55;4.13;;;24.10;98.20;;;;;;5068178;28;20067;-75
2022/05/10 12:40:00;;;;;;;7.70;4.20;;;24.20;98.90;;;;;;5067947;28;20052;-75
2022/05/10 12:42:38;;;;;;;6.65;4.18;;;24.20;98.40;;;;;;5068265;28;20123;-76
2022/05/10 12:45:18;;;;;;;8.43;4.15;;;24.20;97.80;;;;;;5068022;28;20054;-76
2022/05/10 12:48:29;;;;;;;9.40;4.00;;;24.10;97.70;;;;;;5067787;28;20040;-75
2022/05/10 12:51:05;;;;;;;7.25;3.80;;;23.80;97.90;;;;;;5067173;28;20040;-77
2022/05/10 12:54:15;;;;;;;8.40;3.65;;;23.60;98.10;;;;;;5070606;28;20125;-76
2022/05/10 12:57:02;;;;;;;7.30;3.38;;;23.60;98.30;;;;;;5044192;28;20423;-76
2022/05/10 12:59:31;;;;;;;;;;;23.50;98.20;;;;;;5055724;28;20084;-76
2022/05/10 13:01:57;;;;;;;8.63;3.20;;;23.30;98.00;;;;;;5071514;28;19928;-76
2022/05/10 13:04:29;;;;;;;8.75;2.80;;;23.30;98.60;;;;;;5072162;28;20093;-75
2022/05/10 13:07:07;;;;;;;5.07;2.40;;;23.30;98.10;;;;;;5071564;28;20044;-76
2022/05/10 13:09:41;;;;;;;7.22;2.40;;;23.30;96.60;;;;;;5072224;28;20055;-75
2022/05/10 13:12:18;;;;;;;4.97;2.50;;;23.20;96.60;;;;;;5069504;28;20101;-76
2022/05/10 13:14:48;;;;;;;4.28;1.90;;;23.10;96.70;;;;;;5071533;28;20044;-75
2022/05/10 13:17:29;;;;;;;8.18;2.60;;;23.00;96.70;;;;;;5072034;28;20041;-75
2022/05/10 13:19:57;;;;;;;6.97;2.15;;;23.10;96.50;;;;;;5070190;28;20071;-76
2022/05/10 13:22:25;;;;;;;4.72;1.90;;;23.00;97.00;;;;;;5071493;28;20060;-76
2022/05/10 13:24:55;;;;;;;5.70;2.13;;;23.00;96.10;;;;;;5070864;28;20040;-75
2022/05/10 13:27:31;;;;;;;6.25;2.22;;;23.00;95.40;;;;;;5071519;28;20040;-76
2022/05/10 13:30:24;;;;;;;8.63;2.05;;;22.90;95.90;;;;;;5071038;28;20052;-75